createdAt,value
2018-01-27T00:00:42.276Z,7.52
2018-01-27T00:01:52.336Z,7.47
2018-01-27T00:03:02.141Z,7.55
2018-01-27T00:04:12.221Z,7.47
2018-01-27T00:05:22.280Z,7.56
2018-01-27T00:06:32.086Z,7.54
2018-01-27T00:07:42.153Z,7.51
2018-01-27T00:08:52.228Z,7.54
2018-01-27T00:10:02.305Z,7.56
2018-01-27T00:11:12.125Z,7.63
2018-01-27T00:12:22.172Z,7.61
2018-01-27T00:13:32.252Z,7.58
2018-01-27T00:14:42.360Z,7.58
2018-01-27T00:15:52.415Z,7.58
2018-01-27T00:17:05.412Z,7.61
2018-01-27T00:18:15.609Z,7.59
2018-01-27T00:19:25.659Z,7.67
2018-01-27T00:20:35.762Z,7.67
2018-01-27T00:21:45.810Z,7.64
2018-01-27T00:22:55.606Z,7.68
2018-01-27T00:24:05.674Z,7.68
2018-01-27T00:25:15.469Z,7.7
2018-01-27T00:26:25.256Z,7.58
2018-01-27T00:27:35.296Z,7.68
2018-01-27T00:28:45.345Z,7.7
2018-01-27T00:29:55.141Z,7.67
2018-01-27T00:31:05.202Z,7.73
2018-01-27T00:32:15.263Z,7.68
2018-01-27T00:33:25.328Z,7.73
2018-01-27T00:34:35.130Z,7.68
2018-01-27T00:35:45.195Z,7.58
2018-01-27T00:36:55.233Z,7.58
2018-01-27T00:38:05.289Z,7.59
2018-01-27T00:39:15.095Z,7.58
2018-01-27T00:40:25.147Z,7.47
2018-01-27T00:41:35.216Z,7.52
2018-01-27T00:42:45.252Z,7.45
2018-01-27T00:43:55.353Z,7.44
2018-01-27T00:45:05.405Z,7.39
2018-01-27T00:46:15.503Z,7.45
2018-01-27T00:47:25.558Z,7.44
2018-01-27T00:48:35.627Z,7.37
2018-01-27T00:49:45.716Z,7.39
2018-01-27T00:50:55.755Z,7.48
2018-01-27T00:52:05.560Z,7.41
2018-01-27T00:53:15.638Z,7.39
2018-01-27T00:54:25.677Z,7.48
2018-01-27T00:55:35.760Z,7.33
2018-01-27T00:56:45.794Z,7.51
2018-01-27T00:57:55.592Z,7.44
2018-01-27T00:59:05.391Z,7.34
2018-01-27T01:00:15.435Z,7.36
2018-01-27T01:01:25.484Z,7.36
2018-01-27T01:02:35.542Z,7.37
2018-01-27T01:03:46.898Z,7.37
2018-01-27T01:04:56.947Z,7.37
2018-01-27T01:06:06.469Z,7.33
2018-01-27T01:07:16.580Z,7.39
2018-01-27T01:08:27.984Z,7.34
2018-01-27T01:09:38.027Z,7.22
2018-01-27T01:10:48.113Z,7.3
2018-01-27T01:11:58.966Z,7.19
2018-01-27T01:13:08.859Z,7.26
2018-01-27T01:14:19.189Z,7.23
2018-01-27T01:15:29.008Z,7.23
2018-01-27T01:16:39.006Z,7.19
2018-01-27T01:17:48.837Z,7.29
2018-01-27T01:18:59.028Z,7.29
2018-01-27T01:20:08.816Z,7.23
2018-01-27T01:21:18.869Z,7.27
2018-01-27T01:22:28.674Z,7.34
2018-01-27T01:23:38.778Z,7.23
2018-01-27T01:24:48.879Z,7.29
2018-01-27T01:25:58.941Z,7.21
2018-01-27T01:27:08.722Z,7.29
2018-01-27T01:28:18.768Z,7.26
2018-01-27T01:29:28.844Z,7.27
2018-01-27T01:30:38.638Z,7.22
2018-01-27T01:31:48.689Z,7.23
2018-01-27T01:32:58.471Z,7.23
2018-01-27T01:34:08.506Z,7.27
2018-01-27T01:35:18.561Z,7.22
2018-01-27T01:36:28.606Z,7.19
2018-01-27T01:37:38.645Z,7.12
2018-01-27T01:38:48.690Z,7.09
2018-01-27T01:39:58.736Z,7.08
2018-01-27T01:41:08.794Z,7.11
2018-01-27T01:42:18.642Z,7.13
2018-01-27T01:43:28.431Z,7
2018-01-27T01:44:38.504Z,6.98
2018-01-27T01:45:48.566Z,6.97
2018-01-27T01:46:58.618Z,6.93
2018-01-27T01:48:08.434Z,7.04
2018-01-27T01:49:18.468Z,7.05
2018-01-27T01:50:28.256Z,7.03
2018-01-27T01:51:38.046Z,7.04
2018-01-27T01:52:48.090Z,7.05
2018-01-27T01:53:57.887Z,7.09
2018-01-27T01:55:07.671Z,7.03
2018-01-27T01:56:17.730Z,7.13
2018-01-27T01:57:27.772Z,7.05
2018-01-27T01:58:37.917Z,7.09
2018-01-27T01:59:47.960Z,7.09
2018-01-27T02:00:58.027Z,7.03
2018-01-27T02:02:08.066Z,7.16
2018-01-27T02:03:17.853Z,7.13
2018-01-27T02:04:27.899Z,7.12
2018-01-27T02:05:37.685Z,7.03
2018-01-27T02:06:47.731Z,7.08
2018-01-27T02:07:57.776Z,7.03
2018-01-27T02:09:07.838Z,6.95
2018-01-27T02:10:17.892Z,7
2018-01-27T02:11:27.672Z,7
2018-01-27T02:12:37.711Z,7.05
2018-01-27T02:13:47.495Z,7.05
2018-01-27T02:14:57.300Z,7
2018-01-27T02:16:07.098Z,6.97
2018-01-27T02:17:16.873Z,7.01
2018-01-27T02:18:26.919Z,7.01
2018-01-27T02:19:36.976Z,7
2018-01-27T02:20:47.021Z,7
2018-01-27T02:21:56.564Z,7
2018-01-27T02:23:06.609Z,7.04
2018-01-27T02:24:16.669Z,7
2018-01-27T02:25:27.985Z,7.08
2018-01-27T02:26:39.177Z,7.04
2018-01-27T02:27:49.236Z,7.12
2018-01-27T02:28:59.300Z,7.22
2018-01-27T02:30:09.333Z,7.11
2018-01-27T02:31:19.388Z,7.05
2018-01-27T02:32:29.456Z,7.03
2018-01-27T02:33:39.512Z,7.08
2018-01-27T02:34:49.305Z,7.11
2018-01-27T02:35:59.350Z,7.11
2018-01-27T02:37:09.409Z,7.04
2018-01-27T02:38:19.442Z,7
2018-01-27T02:39:29.240Z,7.08
2018-01-27T02:40:39.042Z,7.09
2018-01-27T02:41:49.106Z,7.11
2018-01-27T02:42:59.941Z,7.05
2018-01-27T02:44:09.727Z,7.16
2018-01-27T02:45:19.509Z,7.08
2018-01-27T02:46:29.566Z,7.18
2018-01-27T02:47:39.609Z,7.08
2018-01-27T02:48:49.663Z,7.15
2018-01-27T02:49:59.529Z,7.01
2018-01-27T02:51:09.563Z,7.15
2018-01-27T02:52:19.605Z,7.11
2018-01-27T02:53:29.652Z,7.05
2018-01-27T02:54:39.440Z,6.97
2018-01-27T02:55:49.495Z,6.9
2018-01-27T02:56:59.537Z,6.79
2018-01-27T02:58:09.326Z,6.8
2018-01-27T02:59:19.380Z,6.76
2018-01-27T03:00:29.202Z,6.78
2018-01-27T03:01:39.253Z,6.67
2018-01-27T03:02:49.045Z,6.8
2018-01-27T03:34:59.755Z,3.89
2018-01-27T03:36:09.776Z,3.85
2018-01-27T03:37:19.553Z,3.85
2018-01-27T03:38:29.319Z,3.86
2018-01-27T03:39:39.350Z,3.94
2018-01-27T03:40:49.374Z,4.03
2018-01-27T03:41:59.422Z,4.21
2018-01-27T03:43:09.452Z,4.26
2018-01-27T03:44:19.229Z,4.35
2018-01-27T03:45:29.279Z,4.53
2018-01-27T03:46:39.070Z,4.57
2018-01-27T03:47:49.105Z,4.88
2018-01-27T03:49:00.242Z,4.87
2018-01-27T03:50:10.293Z,5.13
2018-01-27T03:51:20.387Z,5.18
2018-01-27T03:52:30.467Z,5.42
2018-01-27T03:53:40.251Z,5.46
2018-01-27T03:54:50.298Z,5.54
2018-01-27T03:56:00.331Z,5.54
2018-01-27T03:57:10.126Z,5.73
2018-01-27T03:58:19.915Z,5.7
2018-01-27T03:59:29.955Z,5.78
2018-01-27T04:00:39.994Z,5.81
2018-01-27T04:01:50.052Z,5.82
2018-01-27T04:03:00.094Z,6.02
2018-01-27T04:04:09.873Z,6.05
2018-01-27T04:05:19.919Z,6
2018-01-27T04:06:29.705Z,6.14
2018-01-27T04:07:39.479Z,6.2
2018-01-27T04:08:49.528Z,6.2
2018-01-27T04:09:59.577Z,6.15
2018-01-27T04:11:09.096Z,6.21
2018-01-27T04:12:19.154Z,6.34
2018-01-27T04:13:28.937Z,6.29
2018-01-27T04:14:38.716Z,6.28
2018-01-27T04:15:48.752Z,6.37
2018-01-27T04:16:58.799Z,6.42
2018-01-27T04:18:08.581Z,6.36
2018-01-27T04:19:18.630Z,6.43
2018-01-27T04:20:28.416Z,6.28
2018-01-27T04:21:38.513Z,6.43
2018-01-27T04:22:48.563Z,6.31
2018-01-27T04:23:58.604Z,6.39
2018-01-27T04:25:08.649Z,6.44
2018-01-27T04:26:18.697Z,6.4
2018-01-27T04:27:28.739Z,6.4
2018-01-27T04:28:38.603Z,6.47
2018-01-27T04:29:48.708Z,6.44
2018-01-27T04:30:58.747Z,6.44
2018-01-27T04:32:08.791Z,6.49
2018-01-27T04:33:18.583Z,6.51
2018-01-27T04:34:28.380Z,6.47
2018-01-27T04:35:38.425Z,6.4
2018-01-27T04:36:48.476Z,6.54
2018-01-27T04:37:57.997Z,6.54
2018-01-27T04:39:07.822Z,6.54
2018-01-27T04:40:17.603Z,6.54
2018-01-27T04:41:27.403Z,6.55
2018-01-27T04:42:37.482Z,6.55
2018-01-27T04:43:47.577Z,6.62
2018-01-27T04:44:57.645Z,6.57
2018-01-27T04:46:07.700Z,6.58
2018-01-27T04:47:17.729Z,6.6
2018-01-27T04:48:27.775Z,6.62
2018-01-27T04:49:37.557Z,6.68
2018-01-27T04:50:47.611Z,6.65
2018-01-27T04:51:57.396Z,6.61
2018-01-27T04:53:07.430Z,6.52
2018-01-27T04:54:17.468Z,6.61
2018-01-27T04:55:27.512Z,6.55
2018-01-27T04:56:37.045Z,6.51
2018-01-27T04:57:47.100Z,6.55
2018-01-27T04:58:57.146Z,6.61
2018-01-27T05:00:06.930Z,6.57
2018-01-27T05:01:16.973Z,6.65
2018-01-27T05:02:27.165Z,6.67
2018-01-27T05:03:37.188Z,6.47
2018-01-27T05:04:47.234Z,6.61
2018-01-27T05:05:57.286Z,6.55
2018-01-27T05:07:08.425Z,6.58
2018-01-27T05:08:18.471Z,6.58
2018-01-27T05:09:28.271Z,6.51
2018-01-27T05:10:38.300Z,6.58
2018-01-27T05:11:48.340Z,6.54
2018-01-27T05:12:58.189Z,6.55
2018-01-27T05:14:07.874Z,6.65
2018-01-27T05:15:17.919Z,6.64
2018-01-27T05:16:27.955Z,6.72
2018-01-27T05:17:38.000Z,6.68
2018-01-27T05:18:47.829Z,6.65
2018-01-27T05:19:57.881Z,6.7
2018-01-27T05:21:07.937Z,6.62
2018-01-27T05:22:17.992Z,6.68
2018-01-27T05:23:28.028Z,6.64
2018-01-27T05:24:38.058Z,6.72
2018-01-27T05:25:48.100Z,6.72
2018-01-27T05:26:57.877Z,6.68
2018-01-27T05:28:07.948Z,6.64
2018-01-27T05:29:18.010Z,6.79
2018-01-27T05:30:27.856Z,6.67
2018-01-27T05:31:37.905Z,6.75
2018-01-27T05:32:47.952Z,6.76
2018-01-27T05:33:57.742Z,6.75
2018-01-27T05:35:07.763Z,6.7
2018-01-27T05:36:17.546Z,6.78
2018-01-27T05:37:27.643Z,6.68
2018-01-27T05:38:37.434Z,6.68
2018-01-27T05:39:47.231Z,6.7
2018-01-27T05:40:57.047Z,6.68
2018-01-27T05:42:06.833Z,6.65
2018-01-27T05:43:16.864Z,6.7
2018-01-27T05:44:26.914Z,6.7
2018-01-27T05:45:36.970Z,6.65
2018-01-27T05:46:47.011Z,6.72
2018-01-27T05:47:57.061Z,6.72
2018-01-27T05:49:07.174Z,6.72
2018-01-27T05:50:17.226Z,6.7
2018-01-27T05:51:27.285Z,6.7
2018-01-27T05:52:37.324Z,6.64
2018-01-27T05:53:47.376Z,6.65
2018-01-27T05:54:57.427Z,6.57
2018-01-27T05:56:07.468Z,6.55
2018-01-27T05:57:17.258Z,6.6
2018-01-27T05:58:27.062Z,6.67
2018-01-27T05:59:37.111Z,6.7
2018-01-27T06:00:47.157Z,6.67
2018-01-27T06:01:57.210Z,6.7
2018-01-27T06:03:07.258Z,6.6
2018-01-27T06:04:17.038Z,6.65
2018-01-27T06:05:27.088Z,6.61
2018-01-27T06:06:37.138Z,6.68
2018-01-27T06:07:47.183Z,6.68
2018-01-27T06:08:57.232Z,6.68
2018-01-27T06:10:06.777Z,6.64
2018-01-27T06:11:16.605Z,6.7
2018-01-27T06:12:26.645Z,6.68
2018-01-27T06:13:36.701Z,6.73
2018-01-27T06:14:46.763Z,6.64
2018-01-27T06:15:56.815Z,6.68
2018-01-27T06:17:07.819Z,6.83
2018-01-27T06:18:17.622Z,6.76
2018-01-27T06:19:27.710Z,6.78
2018-01-27T06:20:37.758Z,6.76
2018-01-27T06:21:47.803Z,6.79
2018-01-27T06:22:57.826Z,6.79
2018-01-27T06:24:07.669Z,6.78
2018-01-27T06:25:17.725Z,6.79
2018-01-27T06:26:27.771Z,6.75
2018-01-27T06:27:37.284Z,6.68
2018-01-27T06:28:47.324Z,6.65
2018-01-27T06:29:57.429Z,6.73
2018-01-27T06:31:07.468Z,6.76
2018-01-27T06:32:17.511Z,6.73
2018-01-27T06:33:27.294Z,6.76
2018-01-27T06:34:37.379Z,6.68
2018-01-27T06:35:47.420Z,6.68
2018-01-27T06:36:57.209Z,6.68
2018-01-27T06:38:06.987Z,6.73
2018-01-27T06:39:17.049Z,6.7
2018-01-27T06:40:26.846Z,6.72
2018-01-27T06:41:36.368Z,6.62
2018-01-27T06:42:46.420Z,6.65
2018-01-27T06:43:56.460Z,6.72
2018-01-27T06:45:06.517Z,6.67
2018-01-27T06:46:16.585Z,6.7
2018-01-27T06:47:26.706Z,6.65
2018-01-27T06:48:36.815Z,6.67
2018-01-27T06:49:46.865Z,6.67
2018-01-27T06:50:56.393Z,6.68
2018-01-27T06:52:06.197Z,6.76
2018-01-27T06:53:15.999Z,6.78
2018-01-27T06:54:26.054Z,6.75
2018-01-27T06:55:36.103Z,6.65
2018-01-27T06:56:46.746Z,6.78
2018-01-27T06:57:56.540Z,6.83
2018-01-27T06:59:06.579Z,6.8
2018-01-27T07:00:16.633Z,6.85
2018-01-27T07:01:26.143Z,6.9
2018-01-27T07:02:36.186Z,6.88
2018-01-27T07:03:46.222Z,6.97
2018-01-27T07:04:56.308Z,7.03
2018-01-27T07:06:06.087Z,6.98
2018-01-27T07:07:15.637Z,7.08
2018-01-27T07:08:25.406Z,7.04
2018-01-27T07:09:35.181Z,7.19
2018-01-27T07:10:45.022Z,7.13
2018-01-27T07:11:55.056Z,7.08
2018-01-27T07:13:05.096Z,7.13
2018-01-27T07:14:14.888Z,7.12
2018-01-27T07:15:24.686Z,7.23
2018-01-27T07:16:34.472Z,7.26
2018-01-27T07:17:44.518Z,7.19
2018-01-27T07:18:54.566Z,7.15
2018-01-27T07:20:04.628Z,7.21
2018-01-27T07:21:14.417Z,7.18
2018-01-27T07:22:24.507Z,7.16
2018-01-27T07:23:34.306Z,7.15
2018-01-27T07:24:44.369Z,7.19
2018-01-27T07:25:53.900Z,7.18
2018-01-27T07:27:03.438Z,7.21
2018-01-27T07:28:13.348Z,7.22
2018-01-27T07:29:23.132Z,7.19
2018-01-27T07:30:32.917Z,7.23
2018-01-27T07:31:42.960Z,7.21
2018-01-27T07:32:52.727Z,7.19
2018-01-27T07:34:02.783Z,7.16
2018-01-27T07:35:12.569Z,7.15
2018-01-27T07:36:22.376Z,7.18
2018-01-27T07:37:32.183Z,7.22
2018-01-27T07:38:41.970Z,7.26
2018-01-27T07:39:51.741Z,7.23
2018-01-27T07:41:01.538Z,7.26
2018-01-27T07:42:11.315Z,7.22
2018-01-27T07:43:21.379Z,7.18
2018-01-27T07:44:31.166Z,7.29
2018-01-27T07:45:41.207Z,7.34
2018-01-27T07:46:51.058Z,7.31
2018-01-27T07:48:00.837Z,7.31
2018-01-27T07:49:10.884Z,7.34
2018-01-27T07:50:20.935Z,7.41
2018-01-27T07:51:30.964Z,7.34
2018-01-27T07:52:40.770Z,7.21
2018-01-27T07:53:50.561Z,7.27
2018-01-27T07:55:00.609Z,7.26
2018-01-27T07:56:10.720Z,7.3
2018-01-27T07:57:20.521Z,7.37
2018-01-27T07:58:30.568Z,7.31
2018-01-27T07:59:40.626Z,7.33
2018-01-27T08:00:50.432Z,7.26
2018-01-27T08:02:00.488Z,7.19
2018-01-27T08:03:10.549Z,7.22
2018-01-27T08:04:20.339Z,7.22
2018-01-27T08:05:30.401Z,7.26
2018-01-27T08:06:40.196Z,7.29
2018-01-27T08:07:50.247Z,7.22
2018-01-27T08:09:00.286Z,7.23
2018-01-27T08:10:09.816Z,7.22
2018-01-27T08:11:20.393Z,7.22
2018-01-27T08:12:30.189Z,7.21
2018-01-27T08:13:40.238Z,7.26
2018-01-27T08:14:50.289Z,7.23
2018-01-27T08:16:00.071Z,7.27
2018-01-27T08:17:10.923Z,7.27
2018-01-27T08:18:20.714Z,7.26
2018-01-27T08:19:30.511Z,7.26
2018-01-27T08:20:40.569Z,7.19
2018-01-27T08:21:50.629Z,7.3
2018-01-27T08:23:00.697Z,7.22
2018-01-27T08:24:10.532Z,7.26
2018-01-27T08:25:20.572Z,7.26
2018-01-27T08:26:30.640Z,7.23
2018-01-27T08:27:40.688Z,7.36
2018-01-27T08:28:50.474Z,7.22
2018-01-27T08:30:00.267Z,7.18
2018-01-27T08:31:10.389Z,7.22
2018-01-27T08:32:20.444Z,7.22
2018-01-27T08:33:30.238Z,7.31
2018-01-27T08:34:40.280Z,7.21
2018-01-27T08:35:50.081Z,7.21
2018-01-27T08:36:59.926Z,7.21
2018-01-27T08:38:09.964Z,7.13
2018-01-27T08:39:20.014Z,7.26
2018-01-27T08:40:30.044Z,7.19
2018-01-27T08:41:40.110Z,7.27
2018-01-27T08:42:49.948Z,7.23
2018-01-27T08:43:59.994Z,7.22
2018-01-27T08:45:10.028Z,7.27
2018-01-27T08:46:19.900Z,7.34
2018-01-27T08:47:29.779Z,7.4
2018-01-27T08:48:39.828Z,7.3
2018-01-27T08:49:50.671Z,7.36
2018-01-27T08:51:00.225Z,7.37
2018-01-27T08:52:10.300Z,7.44
2018-01-27T08:53:20.343Z,7.34
2018-01-27T08:54:30.139Z,7.44
2018-01-27T08:55:40.197Z,7.37
2018-01-27T08:56:50.256Z,7.36
2018-01-27T08:58:00.343Z,7.37
2018-01-27T08:59:10.414Z,7.36
2018-01-27T09:00:20.519Z,7.31
2018-01-27T09:01:30.585Z,7.47
2018-01-27T09:02:40.651Z,7.51
2018-01-27T09:03:50.448Z,7.51
2018-01-27T09:05:00.244Z,7.51
2018-01-27T09:06:09.789Z,7.48
2018-01-27T09:07:19.831Z,7.48
2018-01-27T09:08:29.891Z,7.45
2018-01-27T09:09:39.952Z,7.48
2018-01-27T09:10:49.982Z,7.64
2018-01-27T09:12:00.032Z,7.59
2018-01-27T09:13:10.100Z,7.63
2018-01-27T09:14:20.167Z,7.73
2018-01-27T09:15:30.214Z,7.77
2018-01-27T09:16:39.482Z,7.74
2018-01-27T09:17:49.529Z,7.73
2018-01-27T09:18:59.589Z,7.68
2018-01-27T09:20:09.650Z,7.64
2018-01-27T09:21:19.457Z,7.73
2018-01-27T09:22:29.560Z,7.64
2018-01-27T09:23:39.609Z,7.67
2018-01-27T09:24:49.658Z,7.73
2018-01-27T09:25:59.454Z,7.8
2018-01-27T09:27:09.518Z,7.8
2018-01-27T09:28:19.585Z,7.88
2018-01-27T09:29:29.685Z,8.01
2018-01-27T09:30:39.738Z,8.01
2018-01-27T09:31:49.854Z,8.14
2018-01-27T09:32:59.691Z,8.16
2018-01-27T09:34:09.483Z,8.19
2018-01-27T09:35:19.526Z,8.26
2018-01-27T09:36:29.575Z,8.42
2018-01-27T09:37:39.376Z,8.42
2018-01-27T09:38:49.447Z,8.44
2018-01-27T09:39:59.496Z,8.46
2018-01-27T09:41:09.549Z,8.49
2018-01-27T09:42:19.624Z,8.49
2018-01-27T09:43:29.686Z,8.36
2018-01-27T09:44:39.752Z,8.26
2018-01-27T09:45:49.811Z,8.36
2018-01-27T09:46:59.869Z,8.31
2018-01-27T09:48:09.928Z,8.29
2018-01-27T09:49:19.993Z,8.22
2018-01-27T09:50:29.802Z,8.34
2018-01-27T09:51:39.638Z,8.24
2018-01-27T09:52:50.727Z,8.32
2018-01-27T09:54:00.774Z,8.21
2018-01-27T09:55:10.826Z,8.14
2018-01-27T09:56:20.922Z,8.24
2018-01-27T09:57:32.340Z,8.14
2018-01-27T09:58:42.429Z,8.32
2018-01-27T09:59:52.488Z,8.35
2018-01-27T10:01:02.264Z,8.43
2018-01-27T10:02:12.319Z,8.43
2018-01-27T10:03:22.382Z,8.44
2018-01-27T10:04:32.229Z,8.49
2018-01-27T10:05:42.297Z,8.47
2018-01-27T10:06:52.383Z,8.47
2018-01-27T10:14:59.151Z,8.39
2018-01-27T10:16:09.368Z,8.43
2018-01-27T10:17:19.321Z,8.31
2018-01-27T10:18:29.112Z,8.44
2018-01-27T10:19:39.158Z,8.49
2018-01-27T10:20:49.224Z,8.5
2018-01-27T10:22:00.201Z,8.46
2018-01-27T10:23:10.255Z,8.61
2018-01-27T10:24:20.295Z,8.71
2018-01-27T10:25:30.337Z,8.68
2018-01-27T10:26:40.406Z,8.6
2018-01-27T10:27:50.461Z,8.62
2018-01-27T10:29:00.584Z,8.61
2018-01-27T10:30:10.707Z,8.71
2018-01-27T10:31:20.505Z,8.76
2018-01-27T10:32:30.573Z,8.72
2018-01-27T10:33:40.649Z,8.8
2018-01-27T10:34:50.696Z,8.72
2018-01-27T10:36:00.804Z,8.82
2018-01-27T10:37:10.671Z,8.87
2018-01-27T10:38:20.770Z,8.92
2018-01-27T10:39:30.827Z,8.94
2018-01-27T10:40:40.662Z,8.97
2018-01-27T10:41:50.461Z,9.08
2018-01-27T10:43:00.522Z,9.17
2018-01-27T10:44:10.579Z,9.27
2018-01-27T10:45:20.381Z,9.29
2018-01-27T10:46:32.181Z,9.24
2018-01-27T10:47:42.240Z,9.27
2018-01-27T10:48:52.344Z,9.27
2018-01-27T10:50:03.058Z,9.32
2018-01-27T10:51:13.963Z,9.3
2018-01-27T10:52:24.058Z,9.39
2018-01-27T10:53:33.873Z,9.26
2018-01-27T10:54:43.664Z,9.29
2018-01-27T10:55:53.703Z,9.26
2018-01-27T10:57:03.499Z,9.19
2018-01-27T10:58:13.590Z,9.14
2018-01-27T10:59:23.654Z,9.09
2018-01-27T11:00:33.448Z,9.04
2018-01-27T11:01:43.513Z,9.11
2018-01-27T11:02:53.305Z,9.11
2018-01-27T11:04:03.102Z,9.14
2018-01-27T11:05:13.201Z,9.16
2018-01-27T11:06:23.061Z,9.16
2018-01-27T11:07:33.151Z,9.19
2018-01-27T11:08:43.241Z,9.12
2018-01-27T11:09:53.023Z,9.21
2018-01-27T11:11:03.092Z,9.23
2018-01-27T11:12:13.187Z,9.3
2018-01-27T11:13:24.551Z,9.3
2018-01-27T11:14:34.404Z,9.24
2018-01-27T11:15:44.722Z,9.23
2018-01-27T11:16:54.760Z,9.38
2018-01-27T11:18:04.621Z,9.34
2018-01-27T11:19:14.720Z,9.48
2018-01-27T11:20:24.791Z,9.6
2018-01-27T11:21:34.877Z,9.63
2018-01-27T11:22:44.697Z,9.63
2018-01-27T11:23:54.799Z,9.64
2018-01-27T11:25:04.907Z,9.66
2018-01-27T11:26:15.043Z,9.66
2018-01-27T11:27:25.215Z,9.77
2018-01-27T11:28:35.278Z,9.71
2018-01-27T11:29:45.234Z,9.74
2018-01-27T11:30:55.288Z,9.75
2018-01-27T11:32:05.382Z,9.74
2018-01-27T11:33:15.481Z,9.7
2018-01-27T11:34:25.556Z,9.66
2018-01-27T11:35:35.618Z,9.8
2018-01-27T11:36:45.673Z,9.7
2018-01-27T11:37:55.453Z,9.74
2018-01-27T11:39:05.257Z,9.74
2018-01-27T11:40:15.405Z,9.74
2018-01-27T11:41:25.479Z,9.74
2018-01-27T11:42:35.324Z,9.78
2018-01-27T11:43:46.491Z,9.82
2018-01-27T11:44:56.554Z,9.89
2018-01-27T11:46:06.622Z,9.75
2018-01-27T11:47:16.415Z,9.63
2018-01-27T11:48:26.493Z,9.67
2018-01-27T11:49:36.288Z,9.67
2018-01-27T11:50:46.343Z,9.66
2018-01-27T11:51:58.669Z,9.63
2018-01-27T11:53:08.733Z,9.77
2018-01-27T11:54:18.818Z,9.75
2018-01-27T11:55:28.897Z,9.71
2018-01-27T11:56:38.963Z,9.8
2018-01-27T11:57:48.510Z,9.71
2018-01-27T11:58:58.633Z,9.78
2018-01-27T12:00:08.727Z,9.82
2018-01-27T12:01:18.796Z,9.75
2018-01-27T12:02:28.858Z,9.81
2018-01-27T12:03:38.650Z,9.72
2018-01-27T12:04:48.780Z,9.77
2018-01-27T12:05:58.594Z,9.71
2018-01-27T12:07:08.408Z,9.71
2018-01-27T12:08:19.532Z,9.74
2018-01-27T12:09:29.626Z,9.71
2018-01-27T12:10:39.686Z,9.82
2018-01-27T12:11:49.765Z,9.84
2018-01-27T12:12:59.824Z,9.93
2018-01-27T12:14:09.886Z,10.11
2018-01-27T12:15:19.974Z,10.14
2018-01-27T12:16:30.403Z,10.21
2018-01-27T12:17:40.474Z,10.21
2018-01-27T12:18:50.542Z,10.18
2018-01-27T12:20:00.640Z,10.13
2018-01-27T12:21:10.711Z,9.99
2018-01-27T12:22:20.774Z,10.1
2018-01-27T12:23:30.826Z,10.15
2018-01-27T12:24:40.629Z,10.14
2018-01-27T12:25:52.093Z,10.14
2018-01-27T12:27:02.168Z,10.17
2018-01-27T12:28:12.229Z,10.15
2018-01-27T12:29:22.009Z,10.11
2018-01-27T12:30:32.078Z,10.14
2018-01-27T12:31:42.130Z,10.15
2018-01-27T12:32:52.179Z,10.14
2018-01-27T12:34:02.269Z,10.13
2018-01-27T12:35:12.332Z,10.13
2018-01-27T12:36:22.425Z,10.2
2018-01-27T12:37:32.558Z,10.25
2018-01-27T12:38:42.622Z,10.28
2018-01-27T12:39:52.708Z,10.36
2018-01-27T12:41:02.761Z,10.35
2018-01-27T12:42:12.630Z,10.42
2018-01-27T12:43:23.799Z,10.44
2018-01-27T12:44:33.875Z,10.39
2018-01-27T12:45:43.923Z,10.39
2018-01-27T12:46:54.000Z,10.51
2018-01-27T12:48:04.051Z,10.41
2018-01-27T12:49:13.919Z,10.39
2018-01-27T12:50:24.011Z,10.25
2018-01-27T12:51:34.116Z,10.29
2018-01-27T12:52:44.197Z,10.28
2018-01-27T12:53:54.020Z,10.21
2018-01-27T12:55:04.132Z,10.05
2018-01-27T12:56:13.946Z,9.95
2018-01-27T12:57:23.765Z,9.84
2018-01-27T12:58:35.326Z,9.78
2018-01-27T12:59:45.406Z,9.63
2018-01-27T13:00:55.255Z,9.59
2018-01-27T13:02:05.344Z,9.48
2018-01-27T13:03:15.410Z,9.45
2018-01-27T13:04:25.749Z,9.42
2018-01-27T13:05:35.827Z,9.35
2018-01-27T13:06:46.220Z,9.3
2018-01-27T13:07:56.273Z,9.2
2018-01-27T13:09:06.342Z,9.24
2018-01-27T13:10:16.897Z,9.17
2018-01-27T13:11:26.731Z,9.03
2018-01-27T13:12:37.061Z,9.08
2018-01-27T13:13:46.948Z,9.01
2018-01-27T13:14:57.001Z,9.05
2018-01-27T13:16:07.116Z,9.09
2018-01-27T13:17:19.114Z,9
2018-01-27T13:18:29.183Z,9.11
2018-01-27T13:19:40.239Z,9.01
2018-01-27T13:20:50.302Z,9.19
2018-01-27T13:22:00.366Z,9.16
2018-01-27T13:23:10.846Z,9.09
2018-01-27T13:24:20.910Z,9.04
2018-01-27T13:25:30.992Z,8.97
2018-01-27T13:26:41.074Z,8.87
2018-01-27T13:27:51.698Z,8.77
2018-01-27T13:29:01.805Z,8.8
2018-01-27T13:30:12.745Z,8.71
2018-01-27T13:31:22.835Z,8.8
2018-01-27T13:32:34.306Z,8.9
2018-01-27T13:33:44.111Z,8.85
2018-01-27T13:34:54.186Z,8.89
2018-01-27T13:36:04.262Z,8.85
2018-01-27T13:37:14.326Z,8.77
2018-01-27T13:38:24.130Z,8.8
2018-01-27T13:39:36.596Z,8.83
2018-01-27T13:40:46.848Z,8.76
2018-01-27T13:41:57.027Z,8.68
2018-01-27T13:43:07.058Z,8.67
2018-01-27T13:44:16.344Z,8.65
2018-01-27T13:45:26.760Z,8.54
2018-01-27T13:46:38.029Z,8.53
2018-01-27T13:47:49.335Z,8.54
2018-01-27T13:48:59.139Z,8.58
2018-01-27T13:50:09.194Z,8.49
2018-01-27T13:51:19.488Z,8.54
2018-01-27T13:52:31.170Z,8.58
2018-01-27T13:53:41.316Z,8.53
2018-01-27T13:54:52.424Z,8.57
2018-01-27T13:56:02.546Z,8.61
2018-01-27T13:57:12.652Z,8.58
2018-01-27T13:58:22.470Z,8.61
2018-01-27T13:59:32.594Z,8.53
2018-01-27T14:00:42.659Z,8.6
2018-01-27T14:01:52.809Z,8.58
2018-01-27T14:03:03.173Z,8.46
2018-01-27T14:04:13.247Z,8.49
2018-01-27T14:05:23.372Z,8.43
2018-01-27T14:06:33.433Z,8.47
2018-01-27T14:07:43.231Z,8.43
2018-01-27T14:08:53.592Z,8.54
2018-01-27T14:10:03.412Z,8.44
2018-01-27T14:11:13.501Z,8.4
2018-01-27T14:12:23.621Z,8.46
2018-01-27T14:13:33.743Z,8.44
2018-01-27T14:14:43.576Z,8.39
2018-01-27T14:15:53.710Z,8.32
2018-01-27T14:17:03.861Z,8.32
2018-01-27T14:18:13.676Z,8.25
2018-01-27T14:19:23.745Z,8.28
2018-01-27T14:20:33.538Z,8.25
2018-01-27T14:21:43.646Z,8.34
2018-01-27T14:22:53.768Z,8.22
2018-01-27T14:24:03.826Z,8.21
2018-01-27T14:25:13.915Z,8.14
2018-01-27T14:26:23.982Z,8.24
2018-01-27T14:27:34.026Z,8.09
2018-01-27T14:28:44.133Z,8.01
2018-01-27T14:29:54.206Z,8.03
2018-01-27T14:31:04.287Z,8.06
2018-01-27T14:32:14.329Z,8.1
2018-01-27T14:33:24.390Z,8.01
2018-01-27T14:34:34.473Z,7.99
2018-01-27T14:35:44.325Z,8.07
2018-01-27T14:36:54.159Z,7.98
2018-01-27T14:38:04.216Z,8.06
2018-01-27T14:39:14.002Z,8.06
2018-01-27T14:40:24.107Z,8.01
2018-01-27T14:41:33.951Z,8.04
2018-01-27T14:42:43.759Z,7.95
2018-01-27T14:43:53.821Z,8.06
2018-01-27T14:45:03.629Z,7.95
2018-01-27T14:46:13.739Z,7.91
2018-01-27T14:47:23.845Z,7.92
2018-01-27T14:48:33.412Z,7.89
2018-01-27T14:49:43.221Z,7.98
2018-01-27T14:50:53.320Z,7.89
2018-01-27T14:52:03.436Z,7.96
2018-01-27T14:53:13.566Z,7.95
2018-01-27T14:54:23.623Z,7.92
2018-01-27T14:55:33.693Z,7.96
2018-01-27T14:56:43.495Z,8.06
2018-01-27T14:57:53.641Z,8.01
2018-01-27T14:59:03.482Z,8.07
2018-01-27T15:00:13.579Z,8.01
2018-01-27T15:01:23.665Z,8.03
2018-01-27T15:02:33.716Z,8.04
2018-01-27T15:03:43.790Z,7.99
2018-01-27T15:04:53.904Z,8.03
2018-01-27T15:06:04.023Z,8.11
2018-01-27T15:07:14.096Z,7.99
2018-01-27T15:08:24.181Z,7.96
2018-01-27T15:09:34.314Z,7.99
2018-01-27T15:10:44.410Z,8.04
2018-01-27T15:11:54.557Z,8.06
2018-01-27T15:13:04.364Z,8.03
2018-01-27T15:14:14.460Z,8.14
2018-01-27T15:15:24.273Z,7.96
2018-01-27T15:16:34.368Z,8.07
2018-01-27T15:17:44.458Z,8.07
2018-01-27T15:18:54.533Z,8.07
2018-01-27T15:20:05.609Z,8.01
2018-01-27T15:21:15.714Z,8.09
2018-01-27T15:22:25.841Z,8.04
2018-01-27T15:23:35.943Z,8.01
2018-01-27T15:24:46.038Z,8.06
2018-01-27T15:25:56.155Z,8.01
2018-01-27T15:27:06.299Z,8.06
2018-01-27T15:28:16.116Z,8.01
2018-01-27T15:29:25.683Z,8.07
2018-01-27T15:30:36.896Z,8.04
2018-01-27T15:31:47.920Z,8.01
2018-01-27T15:32:58.044Z,8.03
2018-01-27T15:34:08.273Z,8.07
2018-01-27T15:35:18.368Z,8.07
2018-01-27T15:36:28.472Z,8.09
2018-01-27T15:37:38.578Z,7.98
2018-01-27T15:38:48.680Z,7.98
2018-01-27T15:39:58.782Z,7.98
2018-01-27T15:41:08.674Z,8.03
2018-01-27T15:42:18.785Z,7.98
2018-01-27T15:43:28.891Z,8.04
2018-01-27T15:44:39.055Z,7.96
2018-01-27T15:45:49.169Z,7.95
2018-01-27T15:46:59.245Z,8.04
2018-01-27T15:48:09.313Z,7.93
2018-01-27T15:49:19.388Z,7.99
2018-01-27T15:50:29.495Z,7.88
2018-01-27T15:51:39.592Z,7.83
2018-01-27T15:52:49.758Z,7.89
2018-01-27T15:53:59.830Z,7.74
2018-01-27T15:55:09.905Z,7.77
2018-01-27T15:56:20.002Z,7.71
2018-01-27T15:57:29.821Z,7.74
2018-01-27T15:58:39.898Z,7.83
2018-01-27T15:59:50.068Z,7.77
2018-01-27T16:01:00.173Z,7.82
2018-01-27T16:02:10.375Z,7.73
2018-01-27T16:03:20.495Z,7.73
2018-01-27T16:04:30.581Z,7.71
2018-01-27T16:05:40.698Z,7.63
2018-01-27T16:06:50.819Z,7.61
2018-01-27T16:08:00.943Z,7.56
2018-01-27T16:09:11.066Z,7.63
2018-01-27T16:10:21.184Z,7.55
2018-01-27T16:11:31.300Z,7.67
2018-01-27T16:12:41.349Z,7.67